sensor_id;sensor_type;location;lat;lon;timestamp;pressure;altitude;pressure_sealevel;temperature;humidity
60427;BME280;46274;47.168;27.604;2024-03-22T00:01:24;100298.16;;;4.75;91.98
60427;BME280;46274;47.168;27.604;2024-03-22T00:07:25;100275.28;;;4.50;92.28
60427;BME280;46274;47.168;27.604;2024-03-22T00:13:26;100192.84;;;4.00;93.39
60427;BME280;46274;47.168;27.604;2024-03-22T00:19:27;100290.38;;;4.72;92.96
60427;BME280;46274;47.168;27.604;2024-03-22T00:25:29;100258.56;;;4.67;91.64
60427;BME280;46274;47.168;27.604;2024-03-22T00:31:33;100280.22;;;4.75;91.62
60427;BME280;46274;47.168;27.604;2024-03-22T00:37:34;100269.50;;;4.75;91.40
60427;BME280;46274;47.168;27.604;2024-03-22T00:43:38;100244.25;;;4.57;90.73
60427;BME280;46274;47.168;27.604;2024-03-22T00:49:39;100260.59;;;4.54;91.11
60427;BME280;46274;47.168;27.604;2024-03-22T00:55:40;100245.84;;;3.43;96.32
60427;BME280;46274;47.168;27.604;2024-03-22T01:01:41;100257.69;;;4.15;93.18
60427;BME280;46274;47.168;27.604;2024-03-22T01:07:46;100203.75;;;3.87;91.11
60427;BME280;46274;47.168;27.604;2024-03-22T01:13:47;100261.28;;;4.25;89.80
60427;BME280;46274;47.168;27.604;2024-03-22T01:19:48;100115.63;;;3.31;89.52
60427;BME280;46274;47.168;27.604;2024-03-22T01:25:49;100238.78;;;3.96;89.24
60427;BME280;46274;47.168;27.604;2024-03-22T01:31:50;100256.50;;;3.87;89.12
60427;BME280;46274;47.168;27.604;2024-03-22T01:37:54;100258.53;;;3.94;88.28
60427;BME280;46274;47.168;27.604;2024-03-22T01:43:55;100253.75;;;3.77;88.62
60427;BME280;46274;47.168;27.604;2024-03-22T01:49:57;100218.75;;;3.58;89.13
60427;BME280;46274;47.168;27.604;2024-03-22T01:55:58;100238.88;;;2.52;93.60
60427;BME280;46274;47.168;27.604;2024-03-22T02:02:00;100247.59;;;2.32;96.57
60427;BME280;46274;47.168;27.604;2024-03-22T02:08:01;100211.66;;;3.24;91.28
60427;BME280;46274;47.168;27.604;2024-03-22T02:14:03;100233.94;;;3.25;89.08
60427;BME280;46274;47.168;27.604;2024-03-22T02:20:04;100228.50;;;1.43;97.39
60427;BME280;46274;47.168;27.604;2024-03-22T02:26:06;100186.88;;;1.41;100.00
60427;BME280;46274;47.168;27.604;2024-03-22T02:32:11;100171.16;;;2.18;94.95
60427;BME280;46274;47.168;27.604;2024-03-22T02:38:12;100214.59;;;1.27;100.00
60427;BME280;46274;47.168;27.604;2024-03-22T02:44:13;100147.34;;;0.98;100.00
60427;BME280;46274;47.168;27.604;2024-03-22T02:50:14;100213.00;;;1.24;100.00
60427;BME280;46274;47.168;27.604;2024-03-22T02:56:15;100203.06;;;1.26;100.00
60427;BME280;46274;47.168;27.604;2024-03-22T03:02:16;100203.31;;;1.94;100.00
60427;BME280;46274;47.168;27.604;2024-03-22T03:08:17;100215.78;;;1.47;97.42
60427;BME280;46274;47.168;27.604;2024-03-22T03:14:18;100217.72;;;0.84;100.00
60427;BME280;46274;47.168;27.604;2024-03-22T03:20:19;100213.59;;;1.52;100.00
60427;BME280;46274;47.168;27.604;2024-03-22T03:26:20;100209.28;;;1.98;100.00
60427;BME280;46274;47.168;27.604;2024-03-22T03:32:21;100187.84;;;1.40;97.77
60427;BME280;46274;47.168;27.604;2024-03-22T03:38:22;100117.50;;;0.93;100.00
60427;BME280;46274;47.168;27.604;2024-03-22T03:44:23;100209.84;;;0.70;100.00
60427;BME280;46274;47.168;27.604;2024-03-22T03:50:24;100144.84;;;-0.69;100.00
60427;BME280;46274;47.168;27.604;2024-03-22T03:56:28;100211.00;;;0.16;100.00
60427;BME280;46274;47.168;27.604;2024-03-22T04:02:29;100209.75;;;0.71;100.00
60427;BME280;46274;47.168;27.604;2024-03-22T04:08:31;100208.38;;;1.26;100.00
60427;BME280;46274;47.168;27.604;2024-03-22T04:14:32;100213.59;;;1.52;98.20
60427;BME280;46274;47.168;27.604;2024-03-22T04:20:33;100214.75;;;0.89;97.67
60427;BME280;46274;47.168;27.604;2024-03-22T04:26:34;100206.28;;;0.95;97.37
60427;BME280;46274;47.168;27.604;2024-03-22T04:32:36;100212.47;;;0.46;100.00
60427;BME280;46274;47.168;27.604;2024-03-22T04:38:37;100135.41;;;0.67;100.00
60427;BME280;46274;47.168;27.604;2024-03-22T04:44:38;100172.38;;;0.47;100.00
60427;BME280;46274;47.168;27.604;2024-03-22T04:50:39;100132.16;;;-0.25;100.00
60427;BME280;46274;47.168;27.604;2024-03-22T04:56:40;100221.31;;;1.08;100.00
60427;BME280;46274;47.168;27.604;2024-03-22T05:02:41;100199.03;;;1.21;100.00
60427;BME280;46274;47.168;27.604;2024-03-22T05:08:43;100193.00;;;1.54;98.69
60427;BME280;46274;47.168;27.604;2024-03-22T05:14:44;100126.94;;;1.45;98.98
60427;BME280;46274;47.168;27.604;2024-03-22T05:20:45;100197.00;;;2.06;98.53
60427;BME280;46274;47.168;27.604;2024-03-22T05:26:46;100231.81;;;2.29;100.00
60427;BME280;46274;47.168;27.604;2024-03-22T05:32:47;100190.25;;;2.47;98.73
60427;BME280;46274;47.168;27.604;2024-03-22T05:38:50;100112.81;;;1.89;100.00
60427;BME280;46274;47.168;27.604;2024-03-22T05:44:51;99872.28;;;0.20;100.00
60427;BME280;46274;47.168;27.604;2024-03-22T05:50:53;100118.03;;;2.47;99.44
60427;BME280;46274;47.168;27.604;2024-03-22T05:56:55;100234.19;;;3.33;98.60
60427;BME280;46274;47.168;27.604;2024-03-22T06:02:56;100126.84;;;2.93;97.58
60427;BME280;46274;47.168;27.604;2024-03-22T06:08:57;99985.31;;;2.46;97.23
60427;BME280;46274;47.168;27.604;2024-03-22T06:15:01;100169.03;;;3.86;99.64
60427;BME280;46274;47.168;27.604;2024-03-22T06:21:06;100194.38;;;4.24;98.05
60427;BME280;46274;47.168;27.604;2024-03-22T06:27:07;100134.28;;;3.75;98.58
60427;BME280;46274;47.168;27.604;2024-03-22T06:33:08;100241.47;;;4.68;97.64
60427;BME280;46274;47.168;27.604;2024-03-22T06:39:09;100195.22;;;4.86;95.63
60427;BME280;46274;47.168;27.604;2024-03-22T06:45:20;99964.50;;;3.85;95.71
60427;BME280;46274;47.168;27.604;2024-03-22T06:51:25;99989.16;;;4.29;93.82
60427;BME280;46274;47.168;27.604;2024-03-22T06:57:26;99946.69;;;4.34;88.73
60427;BME280;46274;47.168;27.604;2024-03-22T07:03:32;99876.09;;;4.14;88.56
60427;BME280;46274;47.168;27.604;2024-03-22T07:09:37;100148.84;;;6.20;87.76
60427;BME280;46274;47.168;27.604;2024-03-22T07:15:49;99923.19;;;5.05;87.01
60427;BME280;46274;47.168;27.604;2024-03-22T07:22:00;99946.16;;;5.27;85.53
60427;BME280;46274;47.168;27.604;2024-03-22T07:28:06;100210.75;;;7.12;87.46
60427;BME280;46274;47.168;27.604;2024-03-22T07:34:08;99949.63;;;5.56;87.07
60427;BME280;46274;47.168;27.604;2024-03-22T07:40:09;99920.56;;;5.69;88.46
60427;BME280;46274;47.168;27.604;2024-03-22T07:46:21;99927.28;;;5.56;86.92
60427;BME280;46274;47.168;27.604;2024-03-22T07:52:34;99987.63;;;6.08;87.96
60427;BME280;46274;47.168;27.604;2024-03-22T07:58:39;99950.00;;;6.26;87.49
60427;BME280;46274;47.168;27.604;2024-03-22T08:04:51;99964.25;;;6.54;87.79
60427;BME280;46274;47.168;27.604;2024-03-22T08:10:55;99978.88;;;6.88;86.32
60427;BME280;46274;47.168;27.604;2024-03-22T08:16:56;99960.03;;;6.70;86.52
60427;BME280;46274;47.168;27.604;2024-03-22T08:22:58;99971.84;;;7.13;87.77
60427;BME280;46274;47.168;27.604;2024-03-22T08:29:06;99997.84;;;7.48;85.28
60427;BME280;46274;47.168;27.604;2024-03-22T08:35:07;100125.25;;;8.20;84.83
60427;BME280;46274;47.168;27.604;2024-03-22T08:41:08;99963.34;;;7.52;83.67
60427;BME280;46274;47.168;27.604;2024-03-22T08:47:15;99958.75;;;7.78;84.42
60427;BME280;46274;47.168;27.604;2024-03-22T08:53:17;100088.47;;;9.12;84.10
60427;BME280;46274;47.168;27.604;2024-03-22T08:59:24;99934.94;;;8.08;82.84
60427;BME280;46274;47.168;27.604;2024-03-22T09:05:39;100122.16;;;8.67;85.73
60427;BME280;46274;47.168;27.604;2024-03-22T09:11:48;99944.38;;;8.04;85.01
60427;BME280;46274;47.168;27.604;2024-03-22T09:17:52;100080.72;;;9.26;84.03
60427;BME280;46274;47.168;27.604;2024-03-22T09:23:55;99931.91;;;8.70;85.40
60427;BME280;46274;47.168;27.604;2024-03-22T09:30:20;99935.75;;;8.51;82.87
60427;BME280;46274;47.168;27.604;2024-03-22T09:36:47;99894.41;;;8.59;82.74
60427;BME280;46274;47.168;27.604;2024-03-22T09:43:02;99887.16;;;8.67;81.64
60427;BME280;46274;47.168;27.604;2024-03-22T09:49:15;100067.50;;;9.88;81.45
60427;BME280;46274;47.168;27.604;2024-03-22T09:55:37;100070.16;;;9.96;81.18
60427;BME280;46274;47.168;27.604;2024-03-22T10:01:52;100065.56;;;10.13;80.76
60427;BME280;46274;47.168;27.604;2024-03-22T10:07:57;99887.81;;;9.02;81.22
60427;BME280;46274;47.168;27.604;2024-03-22T10:14:00;100148.81;;;11.14;79.44
60427;BME280;46274;47.168;27.604;2024-03-22T10:20:06;100135.19;;;10.60;80.23
60427;BME280;46274;47.168;27.604;2024-03-22T10:26:20;100089.28;;;10.67;79.22
60427;BME280;46274;47.168;27.604;2024-03-22T10:32:29;100018.19;;;10.17;78.18
60427;BME280;46274;47.168;27.604;2024-03-22T10:38:33;99859.00;;;9.34;77.96
60427;BME280;46274;47.168;27.604;2024-03-22T10:44:46;100029.03;;;10.57;77.37
60427;BME280;46274;47.168;27.604;2024-03-22T10:50:53;99958.81;;;10.16;78.59
60427;BME280;46274;47.168;27.604;2024-03-22T10:57:16;99796.72;;;9.58;75.92
60427;BME280;46274;47.168;27.604;2024-03-22T11:03:49;99970.47;;;11.02;75.05
60427;BME280;46274;47.168;27.604;2024-03-22T11:09:58;100000.19;;;11.18;74.51
60427;BME280;46274;47.168;27.604;2024-03-22T11:16:22;99815.78;;;10.28;73.37
60427;BME280;46274;47.168;27.604;2024-03-22T11:22:28;99749.88;;;10.12;72.80
60427;BME280;46274;47.168;27.604;2024-03-22T11:29:05;99773.88;;;10.38;73.03
60427;BME280;46274;47.168;27.604;2024-03-22T11:35:10;99808.78;;;10.71;71.43
60427;BME280;46274;47.168;27.604;2024-03-22T11:41:22;99789.66;;;10.87;70.43
60427;BME280;46274;47.168;27.604;2024-03-22T11:47:33;99927.06;;;11.40;70.36
60427;BME280;46274;47.168;27.604;2024-03-22T11:53:58;99993.75;;;12.68;70.11
60427;BME280;46274;47.168;27.604;2024-03-22T12:00:39;99806.78;;;11.32;70.27
60427;BME280;46274;47.168;27.604;2024-03-22T12:06:56;99928.59;;;12.02;69.68
60427;BME280;46274;47.168;27.604;2024-03-22T12:13:15;99753.78;;;10.85;69.92
60427;BME280;46274;47.168;27.604;2024-03-22T12:19:40;99756.00;;;11.26;67.86
60427;BME280;46274;47.168;27.604;2024-03-22T12:25:48;99764.50;;;11.74;67.44
60427;BME280;46274;47.168;27.604;2024-03-22T12:32:08;99742.63;;;11.40;67.29
60427;BME280;46274;47.168;27.604;2024-03-22T12:38:21;99818.69;;;11.83;68.27
60427;BME280;46274;47.168;27.604;2024-03-22T12:44:22;99720.81;;;11.69;67.14
60427;BME280;46274;47.168;27.604;2024-03-22T12:50:26;99753.47;;;11.40;66.88
60427;BME280;46274;47.168;27.604;2024-03-22T12:56:31;99677.94;;;11.22;66.21
60427;BME280;46274;47.168;27.604;2024-03-22T13:02:45;99732.00;;;11.60;66.59
60427;BME280;46274;47.168;27.604;2024-03-22T13:09:20;99956.53;;;13.33;65.72
60427;BME280;46274;47.168;27.604;2024-03-22T13:15:58;99818.38;;;12.07;65.78
60427;BME280;46274;47.168;27.604;2024-03-22T13:22:20;99697.00;;;11.28;66.39
60427;BME280;46274;47.168;27.604;2024-03-22T13:28:47;99806.88;;;12.27;65.70
60427;BME280;46274;47.168;27.604;2024-03-22T13:35:08;99841.13;;;12.06;65.75
60427;BME280;46274;47.168;27.604;2024-03-22T13:41:16;99687.31;;;11.41;65.47
60427;BME280;46274;47.168;27.604;2024-03-22T13:47:20;99826.34;;;12.80;64.96
60427;BME280;46274;47.168;27.604;2024-03-22T13:53:29;99675.72;;;11.68;64.83
60427;BME280;46274;47.168;27.604;2024-03-22T13:59:52;99917.41;;;13.12;64.52
60427;BME280;46274;47.168;27.604;2024-03-22T14:13:39;99642.81;;;11.35;62.50
60427;BME280;46274;47.168;27.604;2024-03-22T14:19:52;99652.22;;;11.54;62.07
60427;BME280;46274;47.168;27.604;2024-03-22T14:26:32;99780.50;;;12.42;61.97
60427;BME280;46274;47.168;27.604;2024-03-22T14:40:06;99627.16;;;11.52;61.59
60427;BME280;46274;47.168;27.604;2024-03-22T14:46:15;99797.41;;;12.44;61.95
60427;BME280;46274;47.168;27.604;2024-03-22T14:52:25;99864.16;;;12.75;61.19
60427;BME280;46274;47.168;27.604;2024-03-22T14:58:47;99879.84;;;12.73;60.97
60427;BME280;46274;47.168;27.604;2024-03-22T15:05:06;99592.56;;;10.81;62.64
60427;BME280;46274;47.168;27.604;2024-03-22T15:11:26;99615.41;;;10.72;60.95
60427;BME280;46274;47.168;27.604;2024-03-22T15:17:41;99785.00;;;11.92;62.93
60427;BME280;46274;47.168;27.604;2024-03-22T15:23:52;99804.22;;;11.61;63.33
60427;BME280;46274;47.168;27.604;2024-03-22T15:30:08;99626.34;;;10.64;63.18
60427;BME280;46274;47.168;27.604;2024-03-22T15:36:39;99678.56;;;10.87;64.18
60427;BME280;46274;47.168;27.604;2024-03-22T15:42:40;99871.69;;;11.78;65.17
60427;BME280;46274;47.168;27.604;2024-03-22T15:48:49;99857.56;;;11.24;67.16
60427;BME280;46274;47.168;27.604;2024-03-22T15:54:50;99874.22;;;11.50;67.11
60427;BME280;46274;47.168;27.604;2024-03-22T16:00:51;99871.88;;;11.62;66.80
60427;BME280;46274;47.168;27.604;2024-03-22T16:06:55;99877.00;;;11.27;67.58
60427;BME280;46274;47.168;27.604;2024-03-22T16:12:56;99880.00;;;11.18;68.31
60427;BME280;46274;47.168;27.604;2024-03-22T16:18:59;99852.63;;;10.75;69.26
60427;BME280;46274;47.168;27.604;2024-03-22T16:25:00;99873.69;;;10.87;69.22
60427;BME280;46274;47.168;27.604;2024-03-22T16:31:02;99869.81;;;10.67;70.48
60427;BME280;46274;47.168;27.604;2024-03-22T16:37:03;99872.06;;;10.40;71.64
60427;BME280;46274;47.168;27.604;2024-03-22T16:43:06;99880.19;;;10.32;71.69
60427;BME280;46274;47.168;27.604;2024-03-22T16:49:07;99878.06;;;9.88;73.19
60427;BME280;46274;47.168;27.604;2024-03-22T16:55:08;99886.59;;;9.77;74.57
60427;BME280;46274;47.168;27.604;2024-03-22T17:01:11;99867.25;;;9.88;73.55
60427;BME280;46274;47.168;27.604;2024-03-22T17:07:21;99888.50;;;9.68;74.59
60427;BME280;46274;47.168;27.604;2024-03-22T17:13:23;99922.31;;;9.64;75.08
60427;BME280;46274;47.168;27.604;2024-03-22T17:19:24;99887.75;;;9.18;75.97
60427;BME280;46274;47.168;27.604;2024-03-22T17:25:31;99912.00;;;9.59;74.75
60427;BME280;46274;47.168;27.604;2024-03-22T17:31:32;99872.16;;;9.37;74.17
60427;BME280;46274;47.168;27.604;2024-03-22T17:37:33;99806.44;;;8.89;73.71
60427;BME280;46274;47.168;27.604;2024-03-22T17:43:38;99923.94;;;9.17;75.35
60427;BME280;46274;47.168;27.604;2024-03-22T17:49:39;99904.34;;;9.15;74.04
60427;BME280;46274;47.168;27.604;2024-03-22T17:55:41;99930.03;;;8.79;75.69
60427;BME280;46274;47.168;27.604;2024-03-22T18:01:41;99915.06;;;8.17;78.71
60427;BME280;46274;47.168;27.604;2024-03-22T18:07:43;99934.06;;;8.74;76.97
60427;BME280;46274;47.168;27.604;2024-03-22T18:13:43;99921.34;;;8.34;78.54
60427;BME280;46274;47.168;27.604;2024-03-22T18:19:51;99906.44;;;8.05;80.20
60427;BME280;46274;47.168;27.604;2024-03-22T18:25:54;99931.94;;;7.77;82.01
60427;BME280;46274;47.168;27.604;2024-03-22T18:31:55;99927.25;;;8.38;78.04
60427;BME280;46274;47.168;27.604;2024-03-22T18:37:56;99878.50;;;7.72;78.89
60427;BME280;46274;47.168;27.604;2024-03-22T18:43:57;99925.28;;;8.40;77.02
60427;BME280;46274;47.168;27.604;2024-03-22T18:49:58;99835.13;;;6.45;86.15
60427;BME280;46274;47.168;27.604;2024-03-22T18:56:02;99889.09;;;8.08;77.93
60427;BME280;46274;47.168;27.604;2024-03-22T19:02:03;99884.00;;;7.54;81.04
60427;BME280;46274;47.168;27.604;2024-03-22T19:08:05;99906.44;;;8.05;78.72
60427;BME280;46274;47.168;27.604;2024-03-22T19:14:09;99864.34;;;6.58;86.98
60427;BME280;46274;47.168;27.604;2024-03-22T19:20:13;99897.56;;;7.36;84.74
60427;BME280;46274;47.168;27.604;2024-03-22T19:26:14;99898.88;;;7.06;88.43
60427;BME280;46274;47.168;27.604;2024-03-22T19:32:15;99875.22;;;7.18;87.51
60427;BME280;46274;47.168;27.604;2024-03-22T19:38:16;99891.94;;;7.64;83.89
60427;BME280;46274;47.168;27.604;2024-03-22T19:44:17;99884.53;;;7.66;83.62
60427;BME280;46274;47.168;27.604;2024-03-22T19:50:21;99894.44;;;7.23;87.18
60427;BME280;46274;47.168;27.604;2024-03-22T19:56:22;99875.09;;;7.62;83.37
60427;BME280;46274;47.168;27.604;2024-03-22T20:02:26;99836.97;;;6.88;89.16
60427;BME280;46274;47.168;27.604;2024-03-22T20:08:27;99888.66;;;7.86;83.78
60427;BME280;46274;47.168;27.604;2024-03-22T20:14:29;99882.97;;;7.98;82.22
60427;BME280;46274;47.168;27.604;2024-03-22T20:20:31;99798.91;;;7.17;84.53
60427;BME280;46274;47.168;27.604;2024-03-22T20:26:32;99871.53;;;8.12;80.89
60427;BME280;46274;47.168;27.604;2024-03-22T20:32:33;99868.22;;;7.76;83.93
